createdAt,value
2018-04-08T00:01:44.242Z,14.00
2018-04-08T00:04:12.459Z,14.00
2018-04-08T00:06:40.745Z,13.90
2018-04-08T00:09:09.845Z,13.80
2018-04-08T00:11:37.961Z,13.80
2018-04-08T00:14:06.081Z,13.80
2018-04-08T00:16:35.127Z,13.70
2018-04-08T00:19:04.129Z,13.80
2018-04-08T00:21:32.258Z,13.70
2018-04-08T00:24:00.445Z,13.70
2018-04-08T00:26:28.641Z,13.70
2018-04-08T00:28:56.836Z,13.60
2018-04-08T00:31:25.094Z,13.60
2018-04-08T00:33:54.276Z,13.60
2018-04-08T00:36:23.505Z,13.50
2018-04-08T00:38:51.625Z,13.50
2018-04-08T00:41:19.741Z,13.50
2018-04-08T00:43:47.944Z,13.40
2018-04-08T00:46:16.085Z,13.40
2018-04-08T00:48:44.384Z,13.40
2018-04-08T00:51:12.546Z,13.40
2018-04-08T00:53:40.686Z,13.30
2018-04-08T00:56:08.816Z,13.30
2018-04-08T00:58:36.946Z,13.30
2018-04-08T01:01:05.197Z,13.30
2018-04-08T01:03:33.336Z,13.20
2018-04-08T01:06:01.531Z,13.20
2018-04-08T01:08:29.739Z,13.20
2018-04-08T01:10:57.871Z,13.10
2018-04-08T01:13:25.991Z,13.10
2018-04-08T01:15:54.853Z,13.00
2018-04-08T01:18:23.136Z,13.00
2018-04-08T01:20:51.376Z,13.00
2018-04-08T01:23:20.362Z,13.00
2018-04-08T01:25:48.505Z,13.00
2018-04-08T01:28:16.657Z,12.90
2018-04-08T01:30:44.844Z,12.90
2018-04-08T01:33:13.210Z,12.90
2018-04-08T01:35:42.102Z,12.90
2018-04-08T01:38:10.232Z,12.80
2018-04-08T01:40:38.542Z,12.80
2018-04-08T01:43:06.766Z,12.80
2018-04-08T01:45:34.956Z,12.80
2018-04-08T01:48:03.111Z,12.70
2018-04-08T01:50:31.558Z,12.70
2018-04-08T01:53:00.608Z,12.70
2018-04-08T01:55:28.789Z,12.60
2018-04-08T01:57:56.976Z,12.60
2018-04-08T02:00:25.137Z,12.60
2018-04-08T02:02:54.198Z,12.60
2018-04-08T02:05:23.319Z,12.60
2018-04-08T02:07:51.670Z,12.50
2018-04-08T02:10:19.995Z,12.50
2018-04-08T02:12:48.128Z,12.50
2018-04-08T02:15:16.285Z,12.40
2018-04-08T02:17:44.586Z,12.40
2018-04-08T02:20:12.888Z,12.40
2018-04-08T02:22:41.193Z,12.40
2018-04-08T02:25:09.466Z,12.40
2018-04-08T02:27:37.868Z,12.40
2018-04-08T02:30:06.019Z,12.30
2018-04-08T02:32:35.147Z,12.30
2018-04-08T02:35:03.285Z,12.30
2018-04-08T02:37:31.473Z,12.30
2018-04-08T02:40:00.475Z,12.20
2018-04-08T02:42:28.681Z,12.20
2018-04-08T02:44:57.434Z,12.20
2018-04-08T02:47:25.590Z,12.20
2018-04-08T02:49:53.774Z,12.10
2018-04-08T02:52:22.658Z,12.10
2018-04-08T02:54:51.130Z,12.10
2018-04-08T02:57:19.626Z,12.10
2018-04-08T02:59:47.765Z,12.10
2018-04-08T03:02:15.922Z,12.00
2018-04-08T03:04:44.213Z,12.00
2018-04-08T03:07:12.328Z,12.00
2018-04-08T03:09:40.513Z,12.00
2018-04-08T03:12:08.729Z,12.00
2018-04-08T03:14:36.934Z,12.00
2018-04-08T03:17:05.079Z,11.90
2018-04-08T03:19:33.297Z,11.90
2018-04-08T03:22:01.493Z,11.90
2018-04-08T03:24:29.643Z,11.90
2018-04-08T03:26:58.593Z,11.90
2018-04-08T03:29:26.753Z,11.90
2018-04-08T03:31:54.940Z,11.90
2018-04-08T03:34:23.198Z,11.80
2018-04-08T03:36:51.333Z,11.80
2018-04-08T03:39:20.335Z,11.80
2018-04-08T03:41:48.597Z,11.80
2018-04-08T03:44:16.767Z,11.80
2018-04-08T03:46:44.942Z,11.80
2018-04-08T03:49:13.106Z,11.80
2018-04-08T03:51:41.596Z,11.70
2018-04-08T03:54:09.797Z,11.70
2018-04-08T03:56:38.182Z,11.70
2018-04-08T03:59:06.325Z,11.70
2018-04-08T04:01:34.562Z,11.70
2018-04-08T04:04:02.678Z,11.60
2018-04-08T04:06:30.854Z,11.60
2018-04-08T04:08:59.022Z,11.60
2018-04-08T04:11:28.049Z,11.50
2018-04-08T04:13:56.189Z,11.50
2018-04-08T04:16:24.990Z,11.50
2018-04-08T04:19:05.014Z,11.50
2018-04-08T04:21:46.841Z,11.40
2018-04-08T04:24:27.034Z,11.40
2018-04-08T04:26:55.942Z,11.40
2018-04-08T04:29:24.147Z,11.40
2018-04-08T04:31:52.926Z,11.40
2018-04-08T04:34:21.217Z,11.40
2018-04-08T04:36:49.689Z,11.30
2018-04-08T04:39:24.629Z,11.30
2018-04-08T04:41:52.985Z,11.30
2018-04-08T04:44:21.227Z,11.20
2018-04-08T04:46:50.536Z,11.20
2018-04-08T04:49:18.736Z,11.20
2018-04-08T04:51:46.943Z,11.20
2018-04-08T04:54:15.190Z,11.10
2018-04-08T04:56:43.690Z,11.10
2018-04-08T04:59:12.691Z,11.10
2018-04-08T05:01:41.915Z,11.10
2018-04-08T05:04:10.803Z,11.10
2018-04-08T05:06:39.384Z,11.10
2018-04-08T05:09:08.885Z,11.10
2018-04-08T05:11:37.590Z,11.00
2018-04-08T05:14:05.999Z,11.10
2018-04-08T05:16:34.142Z,11.00
2018-04-08T05:19:02.341Z,11.00
2018-04-08T05:21:31.829Z,11.00
2018-04-08T05:24:00.770Z,11.00
2018-04-08T05:26:29.230Z,11.00
2018-04-08T05:28:58.912Z,11.00
2018-04-08T05:31:27.089Z,11.00
2018-04-08T05:33:56.169Z,11.10
2018-04-08T05:36:25.493Z,11.10
2018-04-08T05:38:53.697Z,11.10
2018-04-08T05:41:21.918Z,11.10
2018-04-08T05:43:51.258Z,11.10
2018-04-08T05:46:20.217Z,11.20
2018-04-08T05:48:48.601Z,11.10
2018-04-08T05:51:16.714Z,11.20
2018-04-08T05:53:45.770Z,11.20
2018-04-08T05:56:14.017Z,11.30
2018-04-08T05:58:49.358Z,11.40
2018-04-08T06:01:17.619Z,11.40
2018-04-08T06:03:45.771Z,11.50
2018-04-08T06:06:13.837Z,11.60
2018-04-08T06:08:42.860Z,11.70
2018-04-08T06:11:11.901Z,11.80
2018-04-08T06:13:40.199Z,11.80
2018-04-08T06:16:08.348Z,11.90
2018-04-08T06:18:36.526Z,11.90
2018-04-08T06:21:04.680Z,12.00
2018-04-08T06:23:32.823Z,12.00
2018-04-08T06:26:00.929Z,12.10
2018-04-08T06:28:29.977Z,12.10
2018-04-08T06:30:59.050Z,12.20
2018-04-08T06:33:27.193Z,12.20
2018-04-08T06:35:55.531Z,12.30
2018-04-08T06:38:23.699Z,12.30
2018-04-08T06:40:51.886Z,12.40
2018-04-08T06:43:20.157Z,12.40
2018-04-08T06:45:48.386Z,12.50
2018-04-08T06:48:17.270Z,12.50
2018-04-08T06:50:45.658Z,12.50
2018-04-08T06:53:15.511Z,12.60
2018-04-08T06:55:43.738Z,12.60
2018-04-08T06:58:11.975Z,12.70
2018-04-08T07:00:40.165Z,12.70
2018-04-08T07:03:08.785Z,12.80
2018-04-08T07:06:03.394Z,12.80
2018-04-08T07:08:31.545Z,12.90
2018-04-08T07:10:59.979Z,12.90
2018-04-08T07:13:28.606Z,13.00
2018-04-08T07:15:56.793Z,13.00
2018-04-08T07:18:25.781Z,13.10
2018-04-08T07:20:55.106Z,13.10
2018-04-08T07:23:24.166Z,13.10
2018-04-08T07:25:53.278Z,13.20
2018-04-08T07:28:22.144Z,13.30
2018-04-08T07:30:50.328Z,13.30
2018-04-08T07:33:18.727Z,13.40
2018-04-08T07:35:47.001Z,13.40
2018-04-08T07:38:15.149Z,13.50
2018-04-08T07:40:43.335Z,13.60
2018-04-08T07:43:11.463Z,13.70
2018-04-08T07:45:39.602Z,13.80
2018-04-08T07:48:07.924Z,13.80
2018-04-08T07:50:37.092Z,14.00
2018-04-08T07:53:06.293Z,14.00
2018-04-08T07:55:35.398Z,14.20
2018-04-08T07:58:03.583Z,14.10
2018-04-08T08:00:33.382Z,14.30
2018-04-08T08:03:01.658Z,14.30
2018-04-08T08:05:31.190Z,14.50
2018-04-08T08:07:59.401Z,14.50
2018-04-08T08:10:27.581Z,14.60
2018-04-08T08:12:56.848Z,14.70
2018-04-08T08:15:25.034Z,14.70
2018-04-08T08:17:53.535Z,14.80
2018-04-08T08:20:21.721Z,14.90
2018-04-08T08:22:49.904Z,15.00
2018-04-08T08:25:18.628Z,15.00
2018-04-08T08:27:47.596Z,15.30
2018-04-08T08:30:16.761Z,15.40
2018-04-08T08:32:45.749Z,15.50
2018-04-08T08:35:13.931Z,15.50
2018-04-08T08:37:42.120Z,15.60
2018-04-08T08:40:10.394Z,15.70
2018-04-08T08:42:38.609Z,15.80
2018-04-08T08:45:07.905Z,16.00
2018-04-08T08:47:39.600Z,16.00
2018-04-08T08:50:14.160Z,16.10
2018-04-08T08:52:46.509Z,16.40
2018-04-08T08:55:15.669Z,16.40
2018-04-08T08:57:43.863Z,16.60
2018-04-08T09:00:12.030Z,16.70
2018-04-08T09:02:41.035Z,17.00
2018-04-08T09:05:09.446Z,16.90
2018-04-08T09:07:37.717Z,17.10
2018-04-08T09:10:05.999Z,17.30
2018-04-08T09:12:34.852Z,17.50
2018-04-08T09:15:03.877Z,17.80
2018-04-08T09:17:32.996Z,18.00
2018-04-08T09:23:27.026Z,18.20
2018-04-08T09:26:10.925Z,18.40
2018-04-08T09:28:39.043Z,18.50
2018-04-08T09:31:08.026Z,18.80
2018-04-08T09:33:36.160Z,18.80
2018-04-08T09:36:04.315Z,18.90
2018-04-08T09:38:32.463Z,19.00
2018-04-08T09:41:01.673Z,19.10
2018-04-08T09:43:29.938Z,19.20
2018-04-08T09:45:58.028Z,19.30
2018-04-08T09:48:26.983Z,19.60
2018-04-08T09:50:55.982Z,19.70
2018-04-08T09:53:24.214Z,19.70
2018-04-08T09:55:52.450Z,19.80
2018-04-08T09:58:25.284Z,20.00
2018-04-08T10:01:08.476Z,20.10
2018-04-08T10:03:46.098Z,20.30
2018-04-08T10:06:14.663Z,20.40
2018-04-08T10:08:42.827Z,20.60
2018-04-08T10:11:10.937Z,20.70
2018-04-08T10:13:39.868Z,20.90
2018-04-08T10:16:08.092Z,20.90
2018-04-08T10:18:36.428Z,21.00
2018-04-08T10:21:04.830Z,21.00
2018-04-08T10:23:33.285Z,21.20
2018-04-08T10:26:01.479Z,21.30
2018-04-08T10:28:32.723Z,21.40
2018-04-08T10:31:00.815Z,21.60
2018-04-08T10:33:28.941Z,21.70
2018-04-08T10:35:57.115Z,21.90
2018-04-08T10:38:25.201Z,22.10
2018-04-08T10:40:53.336Z,22.30
2018-04-08T10:43:21.470Z,22.50
2018-04-08T10:45:49.713Z,22.70
2018-04-08T10:48:17.940Z,22.80
2018-04-08T10:50:47.303Z,23.30
2018-04-08T10:53:16.189Z,23.50
2018-04-08T10:55:44.436Z,23.40
2018-04-08T10:58:12.579Z,23.70
2018-04-08T11:00:40.731Z,23.90
2018-04-08T11:03:08.837Z,24.10
2018-04-08T11:05:37.021Z,24.20
2018-04-08T11:08:05.175Z,24.40
2018-04-08T11:10:34.070Z,24.80
2018-04-08T11:13:03.503Z,24.80
2018-04-08T11:15:31.659Z,25.00
2018-04-08T11:18:00.524Z,25.30
2018-04-08T11:20:29.436Z,25.50
2018-04-08T11:22:58.310Z,25.70
2018-04-08T11:25:26.488Z,25.60
2018-04-08T11:27:54.612Z,25.80
2018-04-08T11:30:23.027Z,25.90
2018-04-08T11:32:51.101Z,26.10
2018-04-08T11:35:19.276Z,26.20
2018-04-08T11:37:47.377Z,26.40
2018-04-08T11:40:15.490Z,26.50
2018-04-08T11:42:43.622Z,26.60
2018-04-08T11:45:11.841Z,26.70
2018-04-08T11:47:39.943Z,26.80
2018-04-08T11:50:08.075Z,26.90
2018-04-08T11:52:37.053Z,27.00
2018-04-08T11:55:05.161Z,27.00
2018-04-08T11:57:34.033Z,27.10
2018-04-08T12:00:02.157Z,27.10
2018-04-08T12:02:30.373Z,27.20
2018-04-08T12:04:58.498Z,27.20
2018-04-08T12:07:27.408Z,27.30
2018-04-08T12:09:55.536Z,27.30
2018-04-08T12:12:23.694Z,27.40
2018-04-08T12:14:52.649Z,27.40
2018-04-08T12:17:20.769Z,27.50
2018-04-08T12:19:48.949Z,27.60
2018-04-08T12:22:18.030Z,27.60
2018-04-08T12:24:46.234Z,27.70
2018-04-08T12:27:14.397Z,27.80
2018-04-08T12:29:42.602Z,27.90
2018-04-08T12:32:10.766Z,27.90
2018-04-08T12:34:40.209Z,28.00
2018-04-08T12:37:08.340Z,28.00
2018-04-08T12:39:36.482Z,28.10
2018-04-08T12:42:04.647Z,28.20
2018-04-08T12:44:33.862Z,28.40
2018-04-08T12:47:02.133Z,28.30
2018-04-08T12:49:30.995Z,28.50
2018-04-08T12:51:59.143Z,28.50
2018-04-08T12:54:27.245Z,28.60
2018-04-08T12:56:55.352Z,28.70
2018-04-08T12:59:25.061Z,28.80
2018-04-08T13:01:53.967Z,28.90
2018-04-08T13:04:22.118Z,28.80
2018-04-08T13:06:50.336Z,28.90
2018-04-08T13:09:18.514Z,28.90
2018-04-08T13:11:46.642Z,28.90
2018-04-08T13:14:14.940Z,28.90
2018-04-08T13:16:56.921Z,29.00
2018-04-08T13:19:25.083Z,29.00
2018-04-08T13:21:53.230Z,29.00
2018-04-08T13:24:21.406Z,29.10
2018-04-08T13:26:49.528Z,29.10
2018-04-08T13:29:18.474Z,29.20
2018-04-08T13:31:46.588Z,29.10
2018-04-08T13:34:14.727Z,29.20
2018-04-08T13:36:42.874Z,29.20
2018-04-08T13:39:11.031Z,29.20
2018-04-08T13:41:39.137Z,29.30
2018-04-08T13:44:08.117Z,29.30
2018-04-08T13:46:40.244Z,29.30
2018-04-08T13:49:09.331Z,29.40
2018-04-08T13:51:38.078Z,29.30
2018-04-08T13:54:06.241Z,29.40
2018-04-08T13:56:34.582Z,29.40
2018-04-08T13:59:02.737Z,29.40
2018-04-08T14:01:30.988Z,29.50
2018-04-08T14:03:59.907Z,29.50
2018-04-08T14:06:28.921Z,29.50
2018-04-08T14:08:57.089Z,29.50
2018-04-08T14:11:25.381Z,29.60
2018-04-08T14:13:53.530Z,29.60
2018-04-08T14:16:23.563Z,29.70
2018-04-08T14:18:52.443Z,29.70
2018-04-08T14:21:20.876Z,29.70
2018-04-08T14:23:49.070Z,29.80
2018-04-08T14:26:17.403Z,29.90
2018-04-08T14:28:46.257Z,30.00
2018-04-08T14:31:14.373Z,29.90
2018-04-08T14:33:43.263Z,30.10
2018-04-08T14:36:11.391Z,30.00
2018-04-08T14:38:39.635Z,30.10
2018-04-08T14:41:07.717Z,30.10
2018-04-08T14:43:35.908Z,30.10
2018-04-08T14:46:04.034Z,30.20
2018-04-08T14:48:33.150Z,30.30
2018-04-08T14:51:02.065Z,30.30
2018-04-08T14:53:30.181Z,30.30
2018-04-08T14:55:58.311Z,30.40
2018-04-08T14:58:26.455Z,30.40
2018-04-08T15:00:54.584Z,30.50
2018-04-08T15:03:22.710Z,30.50
2018-04-08T15:05:50.816Z,30.60
2018-04-08T15:08:19.682Z,30.60
2018-04-08T15:10:47.897Z,30.60
2018-04-08T15:13:16.050Z,30.70
2018-04-08T15:15:45.475Z,30.70
2018-04-08T15:18:13.602Z,30.70
2018-04-08T15:20:41.780Z,30.80
2018-04-08T15:23:10.910Z,30.80
2018-04-08T15:25:39.283Z,30.80
2018-04-08T15:28:08.271Z,30.90
2018-04-08T15:30:36.526Z,30.80
2018-04-08T15:33:05.549Z,30.90
2018-04-08T15:35:34.832Z,30.90
2018-04-08T15:38:03.107Z,30.90
2018-04-08T15:40:31.366Z,30.80
2018-04-08T15:43:00.287Z,30.80
2018-04-08T15:45:28.626Z,30.80
2018-04-08T15:47:57.526Z,30.70
2018-04-08T15:50:25.665Z,30.70
2018-04-08T15:52:53.812Z,30.70
2018-04-08T15:55:21.918Z,30.60
2018-04-08T15:57:50.037Z,30.60
2018-04-08T16:00:18.154Z,30.50
2018-04-08T16:02:46.294Z,30.50
2018-04-08T16:05:15.337Z,30.40
2018-04-08T16:07:43.429Z,30.40
2018-04-08T16:10:11.644Z,30.30
2018-04-08T16:12:40.295Z,30.30
2018-04-08T16:15:08.440Z,30.20
2018-04-08T16:17:37.086Z,30.10
2018-04-08T16:20:05.685Z,30.10
2018-04-08T16:22:34.602Z,30.00
2018-04-08T16:25:02.762Z,29.90
2018-04-08T16:27:31.665Z,29.80
2018-04-08T16:29:59.771Z,29.80
2018-04-08T16:32:27.894Z,29.80
2018-04-08T16:34:56.902Z,29.60
2018-04-08T16:37:25.100Z,29.60
2018-04-08T16:39:53.404Z,29.50
2018-04-08T16:42:21.493Z,29.50
2018-04-08T16:44:50.646Z,29.40
2018-04-08T16:47:19.716Z,29.30
2018-04-08T16:49:48.161Z,29.30
2018-04-08T16:52:16.430Z,29.20
2018-04-08T16:54:44.578Z,29.20
2018-04-08T16:57:12.724Z,29.10
2018-04-08T16:59:41.720Z,28.90
2018-04-08T17:02:10.723Z,28.80
2018-04-08T17:04:39.025Z,28.80
2018-04-08T17:07:07.571Z,28.70
2018-04-08T17:09:36.482Z,28.60
2018-04-08T17:12:04.752Z,28.50
2018-04-08T17:14:32.866Z,28.40
2018-04-08T17:17:01.037Z,28.30
2018-04-08T17:19:29.312Z,28.30
2018-04-08T17:21:57.449Z,28.20
2018-04-08T17:24:25.573Z,28.10
2018-04-08T17:26:54.567Z,27.90
2018-04-08T17:29:23.776Z,27.90
2018-04-08T17:31:52.123Z,27.80
2018-04-08T17:34:20.267Z,27.60
2018-04-08T17:36:49.799Z,27.50
2018-04-08T17:39:17.881Z,27.40
2018-04-08T17:41:46.878Z,27.30
2018-04-08T17:44:15.114Z,27.20
2018-04-08T17:46:43.479Z,27.00
2018-04-08T17:49:12.525Z,27.00
2018-04-08T17:51:41.990Z,26.70
2018-04-08T17:54:10.483Z,26.70
2018-04-08T17:56:38.794Z,26.70
2018-04-08T17:59:07.994Z,26.50
2018-04-08T18:01:36.545Z,26.40
2018-04-08T18:04:04.846Z,26.30
2018-04-08T18:06:33.042Z,26.20
2018-04-08T18:09:01.498Z,26.10
2018-04-08T18:11:29.628Z,26.00
2018-04-08T18:13:58.601Z,25.80
2018-04-08T18:16:27.543Z,25.80
2018-04-08T18:18:57.408Z,25.70
2018-04-08T18:21:25.590Z,25.60
2018-04-08T18:23:53.866Z,25.50
2018-04-08T18:26:22.803Z,25.30
2018-04-08T18:28:50.917Z,25.20
2018-04-08T18:31:19.181Z,25.10
2018-04-08T18:33:47.388Z,25.00
2018-04-08T18:36:15.601Z,24.90
2018-04-08T18:38:43.692Z,24.80
2018-04-08T18:41:11.799Z,24.70
2018-04-08T18:43:39.978Z,24.60
2018-04-08T18:46:08.203Z,24.50
2018-04-08T18:48:36.315Z,24.40
2018-04-08T18:51:05.267Z,24.10
2018-04-08T18:53:33.561Z,24.10
2018-04-08T18:56:01.783Z,24.00
2018-04-08T18:58:37.254Z,23.90
2018-04-08T19:01:05.377Z,23.80
2018-04-08T19:03:33.554Z,23.70
2018-04-08T19:06:01.674Z,23.60
2018-04-08T19:08:29.943Z,23.50
2018-04-08T19:10:59.095Z,23.30
2018-04-08T19:13:28.336Z,23.10
2018-04-08T19:15:56.490Z,23.10
2018-04-08T19:18:25.548Z,22.90
2018-04-08T19:20:53.814Z,22.90
2018-04-08T19:23:21.961Z,22.80
2018-04-08T19:25:51.082Z,22.70
2018-04-08T19:28:20.349Z,22.50
2018-04-08T19:30:48.589Z,22.50
2018-04-08T19:33:16.764Z,22.40
2018-04-08T19:35:44.920Z,22.30
2018-04-08T19:38:13.227Z,22.20
2018-04-08T19:40:41.708Z,22.10
2018-04-08T19:43:10.128Z,22.10
2018-04-08T19:45:38.545Z,22.00
2018-04-08T19:48:06.697Z,21.90
2018-04-08T19:50:34.881Z,21.80
2018-04-08T19:53:03.050Z,21.70
2018-04-08T19:55:31.242Z,21.60
2018-04-08T19:57:59.570Z,21.50
2018-04-08T20:00:27.689Z,21.40
2018-04-08T20:02:55.947Z,21.30
2018-04-08T20:05:24.093Z,21.30
2018-04-08T20:07:52.299Z,21.20
2018-04-08T20:10:20.409Z,21.10
2018-04-08T20:12:48.535Z,21.00
2018-04-08T20:15:16.788Z,21.00
2018-04-08T20:17:44.907Z,20.90
2018-04-08T20:20:13.281Z,20.80
2018-04-08T20:22:41.457Z,20.80
2018-04-08T20:25:09.731Z,20.70
2018-04-08T20:27:37.973Z,20.60
2018-04-08T20:30:06.089Z,20.60
2018-04-08T20:32:34.380Z,20.50
2018-04-08T20:35:02.496Z,20.40
2018-04-08T20:37:30.592Z,20.40
2018-04-08T20:39:58.730Z,20.30
2018-04-08T20:42:26.880Z,20.20
2018-04-08T20:44:55.085Z,20.10
2018-04-08T20:47:23.310Z,20.10
2018-04-08T20:49:51.622Z,20.00
2018-04-08T20:52:19.861Z,19.90
2018-04-08T20:54:48.027Z,19.90
2018-04-08T20:57:16.326Z,19.80
2018-04-08T20:59:44.499Z,19.70
2018-04-08T21:02:12.661Z,19.70
2018-04-08T21:04:40.859Z,19.60
2018-04-08T21:07:09.749Z,19.50
2018-04-08T21:09:38.646Z,19.40
2018-04-08T21:12:07.582Z,19.30
2018-04-08T21:14:36.471Z,19.30
2018-04-08T21:17:04.615Z,19.20
2018-04-08T21:19:33.532Z,19.10
2018-04-08T21:22:01.649Z,19.10
2018-04-08T21:24:29.875Z,19.10
2018-04-08T21:26:58.817Z,18.90
2018-04-08T21:29:26.953Z,18.90
2018-04-08T21:31:55.100Z,18.90
2018-04-08T21:34:23.222Z,18.80
2018-04-08T21:36:51.356Z,18.70
2018-04-08T21:39:19.482Z,18.70
2018-04-08T21:41:47.602Z,18.60
2018-04-08T21:44:18.178Z,18.50
2018-04-08T21:46:46.419Z,18.50
2018-04-08T21:49:14.630Z,18.40
2018-04-08T21:51:42.749Z,18.40
2018-04-08T21:54:10.929Z,18.30
2018-04-08T21:56:39.076Z,18.20
2018-04-08T21:59:07.202Z,18.20
2018-04-08T22:01:35.431Z,18.10
2018-04-08T22:04:03.669Z,18.00
2018-04-08T22:06:31.768Z,18.00
2018-04-08T22:09:00.656Z,17.80
2018-04-08T22:11:29.717Z,17.70
2018-04-08T22:13:57.856Z,17.70
2018-04-08T22:16:26.012Z,17.70
2018-04-08T22:18:54.899Z,17.60
2018-04-08T22:21:23.817Z,17.50
2018-04-08T22:23:52.001Z,17.50
2018-04-08T22:26:20.112Z,17.40
2018-04-08T22:28:48.245Z,17.40
2018-04-08T22:31:16.356Z,17.30
2018-04-08T22:33:44.558Z,17.30
2018-04-08T22:36:12.681Z,17.20
2018-04-08T22:38:40.802Z,17.10
2018-04-08T22:41:08.904Z,17.10
2018-04-08T22:43:37.020Z,17.00
2018-04-08T22:46:05.130Z,17.00
2018-04-08T22:48:33.265Z,16.90
2018-04-08T22:51:01.390Z,16.80
2018-04-08T22:53:29.529Z,16.80
2018-04-08T22:55:57.804Z,16.70
2018-04-08T22:58:25.927Z,16.70
2018-04-08T23:00:54.048Z,16.60
2018-04-08T23:03:22.211Z,16.60
2018-04-08T23:05:50.405Z,16.50
2018-04-08T23:08:18.583Z,16.40
2018-04-08T23:10:46.702Z,16.40
2018-04-08T23:13:14.829Z,16.30
2018-04-08T23:15:43.716Z,16.20
2018-04-08T23:18:12.620Z,16.20
2018-04-08T23:20:41.519Z,16.10
2018-04-08T23:23:09.648Z,16.10
2018-04-08T23:25:37.756Z,16.10
2018-04-08T23:28:05.950Z,16.00
2018-04-08T23:30:34.093Z,16.00
2018-04-08T23:33:02.269Z,15.90
2018-04-08T23:35:30.446Z,15.90
2018-04-08T23:37:58.618Z,15.80
2018-04-08T23:40:26.747Z,15.80
2018-04-08T23:42:54.914Z,15.70
2018-04-08T23:45:23.042Z,15.70
2018-04-08T23:47:51.178Z,15.60
2018-04-08T23:50:19.388Z,15.60
2018-04-08T23:52:47.514Z,15.50
2018-04-08T23:55:16.421Z,15.40
2018-04-08T23:57:45.305Z,15.40
